sensor_id;sensor_type;location;lat;lon;timestamp;pressure;altitude;pressure_sealevel;temperature;humidity
11212;BME280;5663;50.864;12.096;2023-03-03T00:01:58;99930.88;;;3.22;71.88
11212;BME280;5663;50.864;12.096;2023-03-03T00:04:26;99952.31;;;3.21;72.01
11212;BME280;5663;50.864;12.096;2023-03-03T00:06:55;99903.72;;;3.03;71.80
11212;BME280;5663;50.864;12.096;2023-03-03T00:09:22;99931.75;;;3.24;71.83
11212;BME280;5663;50.864;12.096;2023-03-03T00:11:54;99937.72;;;3.25;72.04
11212;BME280;5663;50.864;12.096;2023-03-03T00:14:25;99942.88;;;3.25;71.95
11212;BME280;5663;50.864;12.096;2023-03-03T00:16:56;99936.91;;;3.21;71.78
11212;BME280;5663;50.864;12.096;2023-03-03T00:19:23;99938.63;;;3.19;71.90
11212;BME280;5663;50.864;12.096;2023-03-03T00:21:53;99926.66;;;3.18;72.04
11212;BME280;5663;50.864;12.096;2023-03-03T00:24:24;99928.41;;;3.16;71.85
11212;BME280;5663;50.864;12.096;2023-03-03T00:27:16;99928.41;;;3.16;72.37
11212;BME280;5663;50.864;12.096;2023-03-03T00:29:55;99909.84;;;2.92;72.43
11212;BME280;5663;50.864;12.096;2023-03-03T00:32:25;99927.69;;;3.05;72.33
11212;BME280;5663;50.864;12.096;2023-03-03T00:35:16;99935.44;;;2.99;72.77
11212;BME280;5663;50.864;12.096;2023-03-03T00:37:49;99938.91;;;2.94;72.69
11212;BME280;5663;50.864;12.096;2023-03-03T00:40:22;99935.50;;;2.95;72.98
11212;BME280;5663;50.864;12.096;2023-03-03T00:42:54;99927.94;;;2.83;72.77
11212;BME280;5663;50.864;12.096;2023-03-03T00:45:29;99940.56;;;2.99;72.92
11212;BME280;5663;50.864;12.096;2023-03-03T00:48:16;99940.63;;;2.95;72.61
11212;BME280;5663;50.864;12.096;2023-03-03T00:50:46;99933.75;;;2.97;73.00
11212;BME280;5663;50.864;12.096;2023-03-03T00:53:15;99933.72;;;2.99;72.86
11212;BME280;5663;50.864;12.096;2023-03-03T00:55:44;99925.19;;;2.97;72.69
11212;BME280;5663;50.864;12.096;2023-03-03T00:58:14;99942.31;;;3.00;72.85
11212;BME280;5663;50.864;12.096;2023-03-03T01:00:43;99929.50;;;2.93;72.94
11212;BME280;5663;50.864;12.096;2023-03-03T01:03:15;99930.34;;;2.94;72.43
11212;BME280;5663;50.864;12.096;2023-03-03T01:05:44;99942.25;;;3.03;72.51
11212;BME280;5663;50.864;12.096;2023-03-03T01:08:12;99940.53;;;3.05;72.57
11212;BME280;5663;50.864;12.096;2023-03-03T01:10:43;99870.75;;;2.66;72.13
11212;BME280;5663;50.864;12.096;2023-03-03T01:13:14;99929.41;;;3.04;72.09
11212;BME280;5663;50.864;12.096;2023-03-03T01:15:43;99925.97;;;3.02;72.27
11212;BME280;5663;50.864;12.096;2023-03-03T01:18:11;99926.84;;;3.03;72.06
11212;BME280;5663;50.864;12.096;2023-03-03T03:20:50;99921.69;;;2.16;73.19
11212;BME280;5663;50.864;12.096;2023-03-03T03:23:18;99925.97;;;2.14;73.19
11212;BME280;5663;50.864;12.096;2023-03-03T03:25:47;99925.91;;;2.19;73.26
11212;BME280;5663;50.864;12.096;2023-03-03T03:28:16;99928.47;;;2.24;73.26
11212;BME280;5663;50.864;12.096;2023-03-03T03:30:44;99936.13;;;2.28;73.12
11212;BME280;5663;50.864;12.096;2023-03-03T03:33:11;99940.41;;;2.28;73.26
11212;BME280;5663;50.864;12.096;2023-03-03T03:35:40;99944.69;;;2.27;73.20
11212;BME280;5663;50.864;12.096;2023-03-03T03:38:13;99939.59;;;2.24;73.38
11212;BME280;5663;50.864;12.096;2023-03-03T03:40:40;99934.41;;;2.27;73.14
11212;BME280;5663;50.864;12.096;2023-03-03T03:43:08;99932.69;;;2.29;73.25
11212;BME280;5663;50.864;12.096;2023-03-03T03:45:36;99933.56;;;2.28;73.12
11212;BME280;5663;50.864;12.096;2023-03-03T03:48:03;99937.84;;;2.26;73.15
11212;BME280;5663;50.864;12.096;2023-03-03T03:50:31;99935.34;;;2.20;73.28
11212;BME280;5663;50.864;12.096;2023-03-03T03:52:59;99882.53;;;1.91;73.13
11212;BME280;5663;50.864;12.096;2023-03-03T03:55:28;99914.88;;;2.12;73.14
11212;BME280;5663;50.864;12.096;2023-03-03T03:57:56;99928.50;;;2.20;72.88
11212;BME280;5663;50.864;12.096;2023-03-03T04:00:24;99929.34;;;2.21;73.16
11212;BME280;5663;50.864;12.096;2023-03-03T04:02:51;99927.63;;;2.21;72.98
11212;BME280;5663;50.864;12.096;2023-03-03T04:05:19;99923.34;;;2.24;72.96
11212;BME280;5663;50.864;12.096;2023-03-03T04:07:47;99921.63;;;2.24;72.83
11212;BME280;5663;50.864;12.096;2023-03-03T04:10:15;99916.56;;;2.16;72.98
11212;BME280;5663;50.864;12.096;2023-03-03T04:12:44;99936.22;;;2.16;73.03
11212;BME280;5663;50.864;12.096;2023-03-03T04:15:12;99941.31;;;2.19;73.21
11212;BME280;5663;50.864;12.096;2023-03-03T04:17:40;99899.63;;;1.94;72.85
11212;BME280;5663;50.864;12.096;2023-03-03T04:20:10;99939.63;;;2.18;72.91
11212;BME280;5663;50.864;12.096;2023-03-03T04:22:39;99939.63;;;2.15;73.15
11212;BME280;5663;50.864;12.096;2023-03-03T04:25:08;99944.78;;;2.15;73.33
11212;BME280;5663;50.864;12.096;2023-03-03T04:27:38;99949.91;;;2.15;72.98
11212;BME280;5663;50.864;12.096;2023-03-03T04:30:08;99946.53;;;2.07;73.35
11212;BME280;5663;50.864;12.096;2023-03-03T04:32:37;99951.66;;;2.07;73.30
11212;BME280;5663;50.864;12.096;2023-03-03T04:35:06;99940.59;;;2.05;73.23
11212;BME280;5663;50.864;12.096;2023-03-03T04:37:37;99945.66;;;2.11;73.08
11212;BME280;5663;50.864;12.096;2023-03-03T04:40:07;99949.97;;;2.09;73.06
11212;BME280;5663;50.864;12.096;2023-03-03T04:42:35;99941.41;;;2.07;73.21
11212;BME280;5663;50.864;12.096;2023-03-03T04:45:04;99949.13;;;2.08;73.40
11212;BME280;5663;50.864;12.096;2023-03-03T04:47:34;99956.78;;;2.10;73.49
11212;BME280;5663;50.864;12.096;2023-03-03T04:50:02;99964.47;;;2.13;73.10
11212;BME280;5663;50.864;12.096;2023-03-03T04:52:29;99966.16;;;2.17;73.31
11212;BME280;5663;50.864;12.096;2023-03-03T04:54:59;99961.91;;;2.13;73.05
11212;BME280;5663;50.864;12.096;2023-03-03T04:57:27;99966.16;;;2.14;73.30
11212;BME280;5663;50.864;12.096;2023-03-03T04:59:55;99967.03;;;2.16;73.14
11212;BME280;5663;50.864;12.096;2023-03-03T05:02:23;99966.16;;;2.17;73.10
11212;BME280;5663;50.864;12.096;2023-03-03T05:04:52;99970.47;;;2.12;73.17
11212;BME280;5663;50.864;12.096;2023-03-03T05:07:20;99963.59;;;2.17;73.22
11212;BME280;5663;50.864;12.096;2023-03-03T05:09:47;99974.66;;;2.19;72.90
11212;BME280;5663;50.864;12.096;2023-03-03T05:12:17;99975.56;;;2.15;72.90
11212;BME280;5663;50.864;12.096;2023-03-03T05:14:45;99973.88;;;2.14;72.81
11212;BME280;5663;50.864;12.096;2023-03-03T05:17:13;99979.00;;;2.14;72.82
11212;BME280;5663;50.864;12.096;2023-03-03T05:19:40;99979.00;;;2.14;73.14
11212;BME280;5663;50.864;12.096;2023-03-03T10:22:19;100144.69;;;2.58;70.47
11212;BME280;5663;50.864;12.096;2023-03-03T10:25:01;100138.66;;;2.62;70.71
11212;BME280;5663;50.864;12.096;2023-03-03T10:27:52;100141.22;;;2.65;70.42
11212;BME280;5663;50.864;12.096;2023-03-03T10:30:34;100142.03;;;2.70;70.57
11212;BME280;5663;50.864;12.096;2023-03-03T10:33:25;100144.59;;;2.73;70.36
11212;BME280;5663;50.864;12.096;2023-03-03T10:36:22;100129.22;;;2.68;69.83
11212;BME280;5663;50.864;12.096;2023-03-03T10:39:19;100131.72;;;2.75;69.99
11212;BME280;5663;50.864;12.096;2023-03-03T10:42:03;100103.69;;;2.45;69.95
11212;BME280;5663;50.864;12.096;2023-03-03T10:47:47;100110.50;;;2.53;70.37
11212;BME280;5663;50.864;12.096;2023-03-03T10:50:23;100136.00;;;2.74;70.31
11212;BME280;5663;50.864;12.096;2023-03-03T10:53:06;100145.47;;;2.72;69.94
11212;BME280;5663;50.864;12.096;2023-03-03T10:55:47;100149.72;;;2.73;69.90
11212;BME280;5663;50.864;12.096;2023-03-03T11:01:28;100159.16;;;2.72;69.34
11212;BME280;5663;50.864;12.096;2023-03-03T11:04:20;100160.03;;;2.67;69.83
11212;BME280;5663;50.864;12.096;2023-03-03T11:06:56;100166.03;;;2.63;69.69
11212;BME280;5663;50.864;12.096;2023-03-03T11:09:37;100149.88;;;2.52;69.57
11212;BME280;5663;50.864;12.096;2023-03-03T11:12:20;100166.88;;;2.68;69.93
11212;BME280;5663;50.864;12.096;2023-03-03T11:15:12;100159.13;;;2.77;69.50
11212;BME280;5663;50.864;12.096;2023-03-03T11:17:57;100125.00;;;2.58;69.69
11212;BME280;5663;50.864;12.096;2023-03-03T11:20:35;100158.22;;;2.84;69.72
11212;BME280;5663;50.864;12.096;2023-03-03T11:23:16;100139.34;;;2.91;69.70
11212;BME280;5663;50.864;12.096;2023-03-03T11:25:56;100144.41;;;2.97;69.43
11212;BME280;5663;50.864;12.096;2023-03-03T11:28:46;100147.78;;;3.03;69.24
11212;BME280;5663;50.864;12.096;2023-03-03T11:31:23;100138.34;;;3.03;69.43
11212;BME280;5663;50.864;12.096;2023-03-03T11:33:57;100142.63;;;3.09;69.43
11212;BME280;5663;50.864;12.096;2023-03-03T11:36:35;100152.03;;;3.10;69.20
11212;BME280;5663;50.864;12.096;2023-03-03T11:39:06;100146.81;;;3.17;69.05
11212;BME280;5663;50.864;12.096;2023-03-03T11:41:38;100137.34;;;3.24;69.19
11212;BME280;5663;50.864;12.096;2023-03-03T11:44:20;100138.97;;;3.34;68.65
11212;BME280;5663;50.864;12.096;2023-03-03T11:46:51;100135.47;;;3.41;68.67
11212;BME280;5663;50.864;12.096;2023-03-03T11:49:27;100143.97;;;3.46;68.88
11212;BME280;5663;50.864;12.096;2023-03-03T11:52:03;100129.41;;;3.49;68.11
11212;BME280;5663;50.864;12.096;2023-03-03T11:54:41;100128.63;;;3.40;67.53
11212;BME280;5663;50.864;12.096;2023-03-03T11:57:19;100115.00;;;3.31;67.50
11212;BME280;5663;50.864;12.096;2023-03-03T11:59:57;100120.91;;;3.42;68.15
11212;BME280;5663;50.864;12.096;2023-03-03T12:02:38;100113.09;;;3.50;68.04
11212;BME280;5663;50.864;12.096;2023-03-03T12:05:13;100119.03;;;3.58;67.64
11212;BME280;5663;50.864;12.096;2023-03-03T12:07:57;100114.66;;;3.63;67.47
11212;BME280;5663;50.864;12.096;2023-03-03T12:10:37;100111.16;;;3.70;67.31
11212;BME280;5663;50.864;12.096;2023-03-03T12:13:17;100111.09;;;3.79;67.71
11212;BME280;5663;50.864;12.096;2023-03-03T12:15:53;100109.28;;;3.87;66.97
11212;BME280;5663;50.864;12.096;2023-03-03T12:21:31;100102.25;;;3.99;66.69
11212;BME280;5663;50.864;12.096;2023-03-03T16:25:53;99971.09;;;4.50;63.62
11212;BME280;5663;50.864;12.096;2023-03-03T16:28:27;99979.66;;;4.50;64.18
11212;BME280;5663;50.864;12.096;2023-03-03T16:31:05;99983.16;;;4.48;63.70
11212;BME280;5663;50.864;12.096;2023-03-03T16:33:37;99996.97;;;4.43;63.80
11212;BME280;5663;50.864;12.096;2023-03-03T16:36:17;99998.69;;;4.41;63.86
11212;BME280;5663;50.864;12.096;2023-03-03T16:38:55;99994.41;;;4.42;64.14
11212;BME280;5663;50.864;12.096;2023-03-03T16:41:31;99997.84;;;4.41;63.81
11212;BME280;5663;50.864;12.096;2023-03-03T16:44:15;99976.69;;;4.22;63.91
11212;BME280;5663;50.864;12.096;2023-03-03T16:46:47;100010.75;;;4.39;63.79
11212;BME280;5663;50.864;12.096;2023-03-03T16:49:22;100009.16;;;4.32;64.18
11212;BME280;5663;50.864;12.096;2023-03-03T16:52:00;100012.59;;;4.31;64.11
11212;BME280;5663;50.864;12.096;2023-03-03T16:54:36;100012.66;;;4.28;64.03
11212;BME280;5663;50.864;12.096;2023-03-03T16:57:15;100011.84;;;4.25;63.69
11212;BME280;5663;50.864;12.096;2023-03-03T17:00:05;100005.03;;;4.20;63.84
11212;BME280;5663;50.864;12.096;2023-03-03T17:05:41;100021.34;;;4.19;64.25
11212;BME280;5663;50.864;12.096;2023-03-03T17:08:22;100004.31;;;4.11;64.33
11212;BME280;5663;50.864;12.096;2023-03-03T17:11:04;100017.97;;;4.16;64.59
11212;BME280;5663;50.864;12.096;2023-03-03T17:13:50;100023.13;;;4.16;64.61
11212;BME280;5663;50.864;12.096;2023-03-03T17:16:29;100019.72;;;4.14;64.66
11212;BME280;5663;50.864;12.096;2023-03-03T17:19:11;100014.03;;;3.90;64.39
11212;BME280;5663;50.864;12.096;2023-03-03T17:21:54;100000.44;;;3.81;64.46
11212;BME280;5663;50.864;12.096;2023-03-03T17:24:31;100035.31;;;4.02;64.55
11212;BME280;5663;50.864;12.096;2023-03-03T17:27:11;100043.03;;;4.03;64.98
11212;BME280;5663;50.864;12.096;2023-03-03T17:29:49;100038.75;;;4.04;64.28
11212;BME280;5663;50.864;12.096;2023-03-03T17:32:34;100031.03;;;4.02;64.88
11212;BME280;5663;50.864;12.096;2023-03-03T17:35:25;100039.63;;;4.01;64.62
11212;BME280;5663;50.864;12.096;2023-03-03T17:38:00;100035.34;;;3.99;64.54
11212;BME280;5663;50.864;12.096;2023-03-03T17:40:43;100032.81;;;3.97;64.76
11212;BME280;5663;50.864;12.096;2023-03-03T17:43:16;100036.31;;;3.93;64.76
11212;BME280;5663;50.864;12.096;2023-03-03T17:45:50;100041.41;;;3.96;65.10
11212;BME280;5663;50.864;12.096;2023-03-03T17:48:39;100029.44;;;3.93;64.62
11212;BME280;5663;50.864;12.096;2023-03-03T17:54:23;100037.16;;;3.93;64.93
11212;BME280;5663;50.864;12.096;2023-03-03T17:57:06;100037.09;;;3.97;65.18
11212;BME280;5663;50.864;12.096;2023-03-03T17:59:54;100026.00;;;3.93;65.14
11212;BME280;5663;50.864;12.096;2023-03-03T18:03:07;100036.25;;;3.94;64.73
11212;BME280;5663;50.864;12.096;2023-03-03T18:05:58;100032.09;;;3.87;64.66
11212;BME280;5663;50.864;12.096;2023-03-03T18:08:55;100042.34;;;3.89;64.92
11212;BME280;5663;50.864;12.096;2023-03-03T18:11:39;100040.66;;;3.88;65.17
11212;BME280;5663;50.864;12.096;2023-03-03T18:14:47;100050.09;;;3.87;64.70
11212;BME280;5663;50.864;12.096;2023-03-03T18:17:47;100042.38;;;3.87;64.79
11212;BME280;5663;50.864;12.096;2023-03-03T18:20:28;100026.25;;;3.73;65.44
11212;BME280;5663;50.864;12.096;2023-03-03T20:23:36;100050.50;;;3.54;65.87
11212;BME280;5663;50.864;12.096;2023-03-03T20:26:14;100059.97;;;3.52;65.18
11212;BME280;5663;50.864;12.096;2023-03-03T20:31:54;100059.97;;;3.49;65.72
11212;BME280;5663;50.864;12.096;2023-03-03T20:34:32;100054.84;;;3.49;65.28
11212;BME280;5663;50.864;12.096;2023-03-03T20:37:07;100053.97;;;3.50;65.39
11212;BME280;5663;50.864;12.096;2023-03-03T20:39:50;100049.69;;;3.52;65.36
11212;BME280;5663;50.864;12.096;2023-03-03T20:42:30;100051.41;;;3.50;66.02
11212;BME280;5663;50.864;12.096;2023-03-03T20:45:14;100047.13;;;3.47;65.77
11212;BME280;5663;50.864;12.096;2023-03-03T20:47:52;100042.00;;;3.49;65.91
11212;BME280;5663;50.864;12.096;2023-03-03T20:50:26;100051.41;;;3.50;65.72
11212;BME280;5663;50.864;12.096;2023-03-03T20:53:19;100051.44;;;3.48;65.70
11212;BME280;5663;50.864;12.096;2023-03-03T20:56:02;100054.00;;;3.48;65.34
11212;BME280;5663;50.864;12.096;2023-03-03T20:58:53;100049.72;;;3.45;65.43
11212;BME280;5663;50.864;12.096;2023-03-03T21:01:29;100049.72;;;3.45;66.02
11212;BME280;5663;50.864;12.096;2023-03-03T21:04:18;100048.00;;;3.46;65.36
11212;BME280;5663;50.864;12.096;2023-03-03T21:06:47;100049.72;;;3.45;65.58
11212;BME280;5663;50.864;12.096;2023-03-03T21:09:27;100045.44;;;3.46;66.04
11212;BME280;5663;50.864;12.096;2023-03-03T21:12:01;100046.34;;;3.43;66.04
11212;BME280;5663;50.864;12.096;2023-03-03T21:14:33;100046.28;;;3.46;65.95
11212;BME280;5663;50.864;12.096;2023-03-03T21:17:23;100046.28;;;3.46;66.11
11212;BME280;5663;50.864;12.096;2023-03-03T21:19:52;100046.28;;;3.46;66.04
11212;BME280;5663;50.864;12.096;2023-03-03T21:22:19;100031.72;;;3.45;65.72
11212;BME280;5663;50.864;12.096;2023-03-03T22:23:21;100022.44;;;3.35;66.32
11212;BME280;5663;50.864;12.096;2023-03-03T22:25:49;100018.19;;;3.31;66.07
11212;BME280;5663;50.864;12.096;2023-03-03T22:28:16;100018.97;;;3.35;66.36
11212;BME280;5663;50.864;12.096;2023-03-03T22:30:44;100019.00;;;3.36;66.56
11212;BME280;5663;50.864;12.096;2023-03-03T22:33:11;100013.88;;;3.33;66.40
11212;BME280;5663;50.864;12.096;2023-03-03T22:35:39;99999.28;;;3.37;66.75
11212;BME280;5663;50.864;12.096;2023-03-03T22:38:06;100010.38;;;3.40;66.62
11212;BME280;5663;50.864;12.096;2023-03-03T22:40:35;100005.25;;;3.37;66.75
11212;BME280;5663;50.864;12.096;2023-03-03T22:43:03;100001.81;;;3.38;66.17
11212;BME280;5663;50.864;12.096;2023-03-03T22:45:31;100000.09;;;3.40;66.17
11212;BME280;5663;50.864;12.096;2023-03-03T22:48:00;99996.66;;;3.41;66.54
11212;BME280;5663;50.864;12.096;2023-03-03T22:50:28;100003.47;;;3.42;66.61
11212;BME280;5663;50.864;12.096;2023-03-03T22:52:56;99989.81;;;3.40;66.33
11212;BME280;5663;50.864;12.096;2023-03-03T22:55:23;99962.59;;;3.21;66.66
11212;BME280;5663;50.864;12.096;2023-03-03T22:57:52;99993.19;;;3.44;66.78
11212;BME280;5663;50.864;12.096;2023-03-03T23:00:20;99984.63;;;3.43;66.78
11212;BME280;5663;50.864;12.096;2023-03-03T23:02:48;99993.13;;;3.47;66.73
11212;BME280;5663;50.864;12.096;2023-03-03T23:05:17;99985.41;;;3.47;66.82
11212;BME280;5663;50.864;12.096;2023-03-03T23:07:45;99983.72;;;3.48;66.81
11212;BME280;5663;50.864;12.096;2023-03-03T23:10:12;99982.00;;;3.48;66.78
11212;BME280;5663;50.864;12.096;2023-03-03T23:12:40;99982.84;;;3.49;66.54
11212;BME280;5663;50.864;12.096;2023-03-03T23:15:10;99957.31;;;3.33;66.27
11212;BME280;5663;50.864;12.096;2023-03-03T23:17:39;99971.78;;;3.43;66.52
11212;BME280;5663;50.864;12.096;2023-03-03T23:20:10;99983.69;;;3.49;66.35
11212;BME280;5663;50.864;12.096;2023-03-03T23:22:40;99978.56;;;3.49;66.78
